Time;durP1;ratioP1;P1;durP2;ratioP2;P2;SDS_P1;SDS_P2;PMS_P1;PMS_P2;Temp;Humidity;BMP_temperature;BMP_pressure;BME280_temperature;BME280_humidity;BME280_pressure;Samples;Min_cycle;Max_cycle;Signal;HPM_P1;HPM_P2
2022/08/25 00:02:06;;;;;;;3.47;3.17;;;29.40;57.40;;;;;;4935663;29;20850;-73
2022/08/25 00:04:34;;;;;;;5.13;3.83;;;29.40;57.40;;;;;;4919986;29;20467;-73
2022/08/25 00:07:02;;;;;;;6.07;3.40;;;29.40;57.40;;;;;;4935714;29;20452;-73
2022/08/25 00:09:34;;;;;;;3.37;3.07;;;29.40;57.30;;;;;;4936851;29;20404;-73
2022/08/25 00:12:01;;;;;;;3.83;3.53;;;29.40;57.30;;;;;;4936855;29;20829;-73
2022/08/25 00:14:34;;;;;;;3.33;3.03;;;29.40;57.30;;;;;;4936688;29;20392;-73
2022/08/25 00:17:00;;;;;;;4.13;3.73;;;29.30;57.20;;;;;;4919232;29;20506;-73
2022/08/25 00:19:30;;;;;;;3.93;3.60;;;29.30;57.30;;;;;;4936474;29;20435;-73
2022/08/25 00:21:57;;;;;;;3.60;3.30;;;29.30;57.30;;;;;;4919789;29;20424;-73
2022/08/25 00:24:23;;;;;;;5.40;3.80;;;29.30;57.30;;;;;;4919506;29;20957;-73
2022/08/25 00:26:55;;;;;;;4.10;3.70;;;29.30;57.30;;;;;;4919481;29;20463;-73
2022/08/25 00:29:25;;;;;;;4.03;3.70;;;29.30;57.30;;;;;;4935297;29;20395;-73
2022/08/25 00:31:52;;;;;;;4.90;2.97;;;29.30;57.30;;;;;;4934885;29;20408;-73
2022/08/25 00:34:22;;;;;;;3.47;3.23;;;29.20;57.20;;;;;;4934580;29;20443;-73
2022/08/25 00:36:52;;;;;;;4.40;3.77;;;29.20;57.30;;;;;;4936084;29;20483;-73
2022/08/25 00:39:22;;;;;;;4.00;3.40;;;29.20;57.30;;;;;;4936181;29;20431;-73
2022/08/25 00:41:50;;;;;;;3.20;2.90;;;29.20;57.20;;;;;;4935188;29;20451;-73
2022/08/25 00:44:17;;;;;;;3.77;3.47;;;29.20;57.20;;;;;;4936243;29;20446;-73
2022/08/25 00:46:55;;;;;;;3.37;3.07;;;29.20;57.20;;;;;;4919051;29;20471;-73
2022/08/25 00:49:48;;;;;;;3.40;3.10;;;29.20;57.20;;;;;;4936307;29;20399;-73
2022/08/25 00:52:28;;;;;;;3.50;3.20;;;29.10;57.20;;;;;;4929693;29;20491;-73
2022/08/25 00:55:05;;;;;;;3.50;3.20;;;29.10;57.10;;;;;;4919260;29;20426;-73
2022/08/25 00:57:48;;;;;;;3.80;3.10;;;29.10;57.10;;;;;;4935074;29;20407;-73
2022/08/25 01:00:41;;;;;;;3.50;3.30;;;29.10;57.10;;;;;;4919277;29;20451;-73
2022/08/25 01:03:08;;;;;;;3.80;3.47;;;29.10;57.10;;;;;;4936091;29;20443;-73
2022/08/25 01:05:35;;;;;;;3.70;3.40;;;29.00;57.10;;;;;;4935824;29;20452;-73
2022/08/25 01:08:03;;;;;;;3.60;3.30;;;29.00;57.10;;;;;;4919246;29;20424;-73
2022/08/25 01:10:31;;;;;;;3.00;2.80;;;29.00;57.10;;;;;;4919175;29;20408;-73
2022/08/25 01:13:06;;;;;;;3.77;3.17;;;29.00;57.10;;;;;;4934684;29;20519;-73
2022/08/25 01:15:35;;;;;;;3.43;3.23;;;29.00;57.10;;;;;;4934732;29;20404;-73
2022/08/25 01:18:01;;;;;;;3.43;3.10;;;29.00;57.10;;;;;;4924706;29;20439;-72
2022/08/25 01:20:33;;;;;;;3.67;3.37;;;29.00;57.10;;;;;;4954939;29;20859;-73
2022/08/25 01:23:00;;;;;;;3.83;3.53;;;28.90;57.10;;;;;;4937869;29;20443;-73
2022/08/25 01:25:46;;;;;;;3.47;3.20;;;28.90;57.10;;;;;;4953970;28;20976;-73
2022/08/25 01:28:31;;;;;;;3.57;3.07;;;28.90;57.10;;;;;;4939285;29;20454;-73
2022/08/25 01:31:04;;;;;;;4.60;3.60;;;28.90;57.10;;;;;;4958833;29;20403;-73
2022/08/25 01:33:31;;;;;;;3.67;3.37;;;28.90;57.10;;;;;;4958882;29;20434;-73
2022/08/25 01:36:00;;;;;;;3.20;2.90;;;28.80;57.10;;;;;;4957797;29;20420;-73
2022/08/25 01:41:33;;;;;;;3.17;2.97;;;28.80;57.00;;;;;;5118969;23;20532;-73
2022/08/25 01:49:43;;;;;;;3.60;2.90;;;28.70;57.50;;;;;;5887484;23;20509;-71
2022/08/25 01:52:26;;;;;;;3.60;3.30;;;28.70;57.00;;;;;;4938573;28;20949;-72
2022/08/25 01:54:52;;;;;;;3.10;2.90;;;28.70;57.00;;;;;;4936347;29;20830;-72
2022/08/25 01:57:23;;;;;;;3.20;3.00;;;28.70;57.00;;;;;;4938470;29;20411;-72
2022/08/25 01:59:51;;;;;;;3.60;3.30;;;28.70;57.00;;;;;;4936720;29;20995;-72
2022/08/25 02:02:17;;;;;;;4.10;3.67;;;28.70;56.80;;;;;;4937145;29;20973;-72
2022/08/25 02:04:43;;;;;;;3.80;3.50;;;28.60;56.80;;;;;;4936665;29;20407;-72
2022/08/25 02:07:09;;;;;;;3.57;3.20;;;28.60;56.80;;;;;;4936060;29;20830;-73
2022/08/25 02:09:37;;;;;;;3.30;3.00;;;28.60;56.80;;;;;;4921216;29;20499;-72
2022/08/25 02:12:03;;;;;;;4.30;3.43;;;28.60;56.80;;;;;;4938186;29;20408;-72
2022/08/25 02:14:32;;;;;;;3.70;3.40;;;28.60;56.90;;;;;;4936760;29;20440;-72
2022/08/25 02:17:00;;;;;;;5.40;3.27;;;28.60;57.00;;;;;;4920786;29;20436;-72
2022/08/25 02:19:26;;;;;;;3.40;3.17;;;28.50;56.90;;;;;;4936769;29;20427;-73
2022/08/25 02:21:54;;;;;;;3.77;3.40;;;28.50;56.90;;;;;;4937717;29;20404;-72
2022/08/25 02:24:20;;;;;;;3.33;3.03;;;28.50;57.00;;;;;;4920906;29;20817;-72
2022/08/25 02:26:49;;;;;;;5.37;3.37;;;28.50;57.00;;;;;;4936229;29;20451;-72
2022/08/25 02:29:18;;;;;;;4.10;3.70;;;28.50;57.00;;;;;;4937347;29;20441;-72
2022/08/25 02:31:49;;;;;;;4.33;3.27;;;28.50;57.00;;;;;;4937621;29;20419;-72
2022/08/25 02:34:17;;;;;;;4.20;3.57;;;28.50;57.00;;;;;;4936367;29;20482;-72
2022/08/25 02:36:43;;;;;;;3.70;3.40;;;28.40;57.00;;;;;;4937513;29;20411;-72
2022/08/25 02:39:12;;;;;;;3.47;3.17;;;28.40;57.00;;;;;;4920511;29;20415;-73
2022/08/25 02:41:41;;;;;;;4.20;2.93;;;28.40;57.00;;;;;;4934710;29;20459;-73
2022/08/25 02:44:08;;;;;;;4.30;3.50;;;28.40;57.10;;;;;;4918290;29;20985;-72
2022/08/25 02:46:36;;;;;;;6.27;3.60;;;28.40;57.10;;;;;;4917154;29;20563;-72
2022/08/25 02:49:06;;;;;;;2.90;2.70;;;28.30;56.90;;;;;;4918213;29;20427;-73
2022/08/25 02:51:37;;;;;;;4.13;3.73;;;28.30;57.00;;;;;;4917307;29;20469;-73
2022/08/25 02:54:05;;;;;;;3.33;3.03;;;28.30;57.10;;;;;;4891927;29;20455;-72
2022/08/25 02:56:32;;;;;;;3.70;3.40;;;28.30;57.10;;;;;;4904564;29;20491;-72
2022/08/25 02:59:04;;;;;;;3.83;3.37;;;28.30;57.20;;;;;;4920251;29;20463;-72
2022/08/25 03:01:31;;;;;;;3.23;2.90;;;28.30;57.20;;;;;;4936107;29;20440;-73
2022/08/25 03:04:00;;;;;;;3.70;3.23;;;28.20;57.20;;;;;;4920000;29;20821;-72
2022/08/25 03:06:26;;;;;;;3.43;3.20;;;28.20;57.20;;;;;;4919728;29;20999;-72
2022/08/25 03:08:56;;;;;;;3.67;3.20;;;28.20;57.20;;;;;;4903929;29;20790;-72
2022/08/25 03:11:24;;;;;;;3.73;3.43;;;28.20;57.30;;;;;;4903295;29;20544;-72
2022/08/25 03:13:50;;;;;;;3.90;3.60;;;28.20;57.20;;;;;;4935342;29;20984;-72
2022/08/25 03:16:17;;;;;;;3.73;3.43;;;28.20;57.30;;;;;;4919653;29;20443;-72
2022/08/25 03:18:48;;;;;;;3.30;3.03;;;28.20;57.30;;;;;;4919453;29;20829;-72
2022/08/25 03:21:20;;;;;;;3.47;3.07;;;28.10;57.30;;;;;;4919191;29;20413;-72
2022/08/25 03:23:48;;;;;;;4.40;3.50;;;28.10;57.40;;;;;;4935119;29;20444;-72
2022/08/25 03:29:04;;;;;;;3.90;3.60;;;28.10;57.30;;;;;;4919245;29;20443;-72
2022/08/25 03:31:58;;;;;;;3.40;3.10;;;28.00;57.30;;;;;;4918049;29;20439;-72
2022/08/25 03:34:26;;;;;;;3.60;3.30;;;28.00;57.30;;;;;;4934649;29;20500;-72
2022/08/25 03:36:54;;;;;;;3.70;3.10;;;28.00;57.30;;;;;;4919176;29;20926;-72
2022/08/25 03:39:25;;;;;;;3.97;3.67;;;28.00;57.30;;;;;;4919007;29;20829;-72
2022/08/25 03:41:54;;;;;;;4.20;3.80;;;28.00;57.40;;;;;;4919014;29;20436;-72
2022/08/25 03:44:20;;;;;;;3.60;3.30;;;28.00;57.40;;;;;;4902862;29;20514;-72
2022/08/25 03:46:50;;;;;;;3.73;3.40;;;27.90;57.40;;;;;;4935822;29;20472;-72
2022/08/25 03:49:22;;;;;;;3.90;3.50;;;27.90;57.40;;;;;;4935810;29;20449;-72
2022/08/25 03:51:50;;;;;;;3.77;3.47;;;27.90;57.40;;;;;;4917859;29;20496;-72
2022/08/25 03:54:24;;;;;;;3.37;3.10;;;27.90;57.40;;;;;;4909859;29;20476;-72
2022/08/25 03:56:51;;;;;;;3.63;3.30;;;27.90;57.50;;;;;;4897647;29;20971;-72
2022/08/25 03:59:19;;;;;;;3.90;3.60;;;27.90;57.40;;;;;;4880986;29;20577;-72
2022/08/25 04:01:46;;;;;;;3.73;3.43;;;27.90;57.50;;;;;;4897777;29;20461;-73
2022/08/25 04:04:15;;;;;;;4.20;3.80;;;27.80;57.40;;;;;;4896619;29;20973;-73
2022/08/25 04:06:43;;;;;;;3.80;3.43;;;27.80;57.50;;;;;;4897585;29;20582;-73
2022/08/25 04:09:10;;;;;;;5.90;3.97;;;27.80;57.50;;;;;;4896562;29;20444;-73
2022/08/25 04:11:39;;;;;;;3.80;3.47;;;27.80;57.50;;;;;;4896863;29;20425;-71
2022/08/25 04:14:09;;;;;;;3.90;3.60;;;27.70;57.50;;;;;;4897535;29;20449;-71
2022/08/25 04:16:40;;;;;;;3.30;3.10;;;27.70;57.50;;;;;;4896505;29;20521;-71
2022/08/25 04:19:09;;;;;;;4.30;3.97;;;27.70;57.50;;;;;;4896099;29;20417;-71
2022/08/25 04:21:39;;;;;;;3.90;3.60;;;27.70;58.20;;;;;;4896636;29;20438;-71
2022/08/25 04:24:09;;;;;;;3.70;3.27;;;27.70;57.60;;;;;;4895461;29;20500;-71
2022/08/25 04:26:39;;;;;;;4.33;3.93;;;27.70;57.70;;;;;;4896107;29;20558;-71
2022/08/25 04:29:08;;;;;;;3.90;3.60;;;27.60;57.60;;;;;;4861922;29;20414;-70
2022/08/25 04:31:38;;;;;;;4.20;3.70;;;27.60;57.70;;;;;;4886620;29;20457;-72
2022/08/25 04:34:07;;;;;;;4.67;4.17;;;27.60;57.70;;;;;;4895871;29;20975;-71
2022/08/25 04:36:35;;;;;;;4.03;3.63;;;27.60;57.70;;;;;;4895934;29;20413;-71
2022/08/25 04:39:02;;;;;;;3.67;3.37;;;27.60;57.70;;;;;;4880521;29;20496;-71
2022/08/25 04:41:29;;;;;;;4.67;3.97;;;27.60;57.70;;;;;;4897168;29;20405;-71
2022/08/25 04:43:59;;;;;;;4.23;3.93;;;27.50;57.70;;;;;;4895469;29;20480;-72
2022/08/25 04:46:34;;;;;;;4.27;3.97;;;27.50;57.70;;;;;;4895505;29;20468;-72
2022/08/25 04:49:03;;;;;;;4.67;4.27;;;27.50;57.70;;;;;;4896842;29;20517;-72
2022/08/25 04:51:39;;;;;;;4.17;3.87;;;27.50;57.80;;;;;;4895806;29;20413;-72
2022/08/25 04:54:08;;;;;;;4.70;3.90;;;27.50;57.80;;;;;;4873756;29;20467;-72
2022/08/25 04:56:35;;;;;;;4.83;3.90;;;27.50;57.80;;;;;;4843163;29;20428;-72
2022/08/25 04:59:08;;;;;;;4.40;3.90;;;27.40;57.80;;;;;;4842974;29;20467;-71
2022/08/25 05:01:38;;;;;;;3.97;3.67;;;27.40;57.80;;;;;;4859902;29;20929;-72
2022/08/25 05:04:06;;;;;;;4.10;3.80;;;27.40;57.80;;;;;;4842968;29;20996;-72
2022/08/25 05:06:33;;;;;;;3.80;3.50;;;27.40;57.80;;;;;;4858406;29;20463;-72
2022/08/25 05:09:02;;;;;;;4.63;4.10;;;27.40;57.90;;;;;;4843061;29;20510;-72
2022/08/25 05:11:31;;;;;;;4.40;4.00;;;27.40;57.90;;;;;;4858229;29;20447;-71
2022/08/25 05:14:00;;;;;;;4.37;3.50;;;27.40;57.90;;;;;;4842975;29;20973;-72
2022/08/25 05:16:31;;;;;;;3.83;3.50;;;27.40;57.90;;;;;;4859040;29;20932;-72
2022/08/25 05:18:57;;;;;;;4.80;4.27;;;27.30;57.90;;;;;;4842948;29;20447;-72
2022/08/25 05:21:27;;;;;;;3.77;3.47;;;27.30;58.00;;;;;;4859430;29;20410;-72
2022/08/25 05:23:57;;;;;;;5.03;3.37;;;27.30;58.00;;;;;;4842874;29;20503;-72
2022/08/25 05:26:25;;;;;;;4.07;3.77;;;27.30;58.00;;;;;;4842834;29;20471;-71
2022/08/25 05:29:00;;;;;;;4.10;3.80;;;27.30;58.10;;;;;;4858897;29;20432;-76
2022/08/25 05:31:27;;;;;;;4.03;3.67;;;27.20;58.00;;;;;;4859406;29;20449;-73
2022/08/25 05:33:54;;;;;;;4.47;4.07;;;27.30;58.10;;;;;;4843592;29;20467;-74
2022/08/25 05:36:21;;;;;;;5.37;3.70;;;27.20;58.00;;;;;;4858412;29;20416;-71
2022/08/25 05:38:54;;;;;;;4.70;3.80;;;27.20;58.10;;;;;;4857967;29;20459;-71
2022/08/25 05:41:30;;;;;;;4.87;4.40;;;27.20;58.20;;;;;;4858494;29;20434;-72
2022/08/25 05:44:03;;;;;;;4.50;3.80;;;27.20;58.20;;;;;;4858380;29;20466;-72
2022/08/25 05:46:32;;;;;;;6.40;4.13;;;27.10;58.10;;;;;;4843036;29;20517;-72
2022/08/25 05:48:59;;;;;;;4.80;4.40;;;27.10;58.70;;;;;;4858145;29;20836;-70
2022/08/25 05:51:25;;;;;;;4.37;3.97;;;27.10;58.20;;;;;;4857158;29;20475;-71
2022/08/25 05:53:53;;;;;;;3.70;3.40;;;27.10;58.20;;;;;;4857659;29;20880;-72
2022/08/25 05:56:22;;;;;;;4.10;3.70;;;27.10;58.30;;;;;;4827406;29;20463;-72
2022/08/25 05:58:52;;;;;;;5.30;4.20;;;27.10;58.30;;;;;;4857871;29;20430;-72
2022/08/25 06:04:14;;;;;;;4.10;3.80;;;27.10;58.40;;;;;;4859939;29;21054;-74
2022/08/25 06:06:45;;;;;;;4.97;4.57;;;27.10;58.40;;;;;;4837799;29;20463;-72
2022/08/25 06:09:16;;;;;;;4.73;4.33;;;27.10;58.40;;;;;;4857464;29;20482;-74
2022/08/25 06:11:47;;;;;;;4.67;4.27;;;27.00;58.40;;;;;;4858212;29;20423;-75
2022/08/25 06:14:14;;;;;;;5.10;4.30;;;27.00;58.40;;;;;;4857653;29;20491;-76
2022/08/25 06:16:40;;;;;;;4.90;4.03;;;27.00;58.50;;;;;;4859848;29;20440;-76
2022/08/25 06:19:12;;;;;;;5.20;3.90;;;27.00;58.50;;;;;;4829289;29;20442;-78
2022/08/25 06:21:38;;;;;;;5.80;4.03;;;27.00;58.50;;;;;;4861095;29;20846;-76
2022/08/25 06:24:09;;;;;;;4.33;3.93;;;27.00;58.50;;;;;;4862402;29;20865;-73
2022/08/25 06:26:38;;;;;;;5.63;3.80;;;27.00;58.60;;;;;;4860805;29;20854;-75
2022/08/25 06:29:15;;;;;;;4.70;4.30;;;27.00;58.60;;;;;;4845679;29;20440;-75
2022/08/25 06:31:42;;;;;;;4.90;4.53;;;27.00;58.60;;;;;;4845556;29;20450;-74
2022/08/25 06:34:12;;;;;;;4.43;3.97;;;27.00;58.70;;;;;;4860354;29;20463;-74
2022/08/25 06:36:39;;;;;;;4.33;3.93;;;27.00;58.70;;;;;;4845475;29;20443;-75
2022/08/25 06:39:05;;;;;;;5.07;4.00;;;27.00;58.80;;;;;;4832054;29;20438;-75
2022/08/25 06:41:31;;;;;;;5.23;4.23;;;26.90;58.80;;;;;;4858634;29;20439;-74
2022/08/25 06:43:58;;;;;;;5.47;4.33;;;26.90;58.80;;;;;;4829803;29;20455;-74
2022/08/25 06:46:28;;;;;;;4.53;3.60;;;26.90;58.80;;;;;;4830256;29;20576;-74
2022/08/25 06:48:57;;;;;;;4.00;3.70;;;26.90;58.80;;;;;;4856964;29;20452;-74
2022/08/25 06:51:27;;;;;;;4.03;3.73;;;26.90;58.90;;;;;;4856659;29;20936;-74
2022/08/25 06:53:53;;;;;;;6.83;3.97;;;27.00;59.00;;;;;;4841720;29;20614;-75
2022/08/25 06:56:20;;;;;;;4.47;4.07;;;26.90;58.90;;;;;;4857717;29;20576;-74
2022/08/25 06:59:16;;;;;;;4.00;3.57;;;27.00;59.00;;;;;;4836241;29;20432;-73
2022/08/25 07:01:42;;;;;;;4.33;3.90;;;26.90;58.90;;;;;;4846673;29;20526;-74
2022/08/25 07:04:09;;;;;;;4.13;3.73;;;26.90;58.90;;;;;;4844387;29;20476;-74
2022/08/25 07:06:38;;;;;;;3.87;3.57;;;26.90;58.90;;;;;;4852591;29;20601;-74
2022/08/25 07:09:08;;;;;;;4.60;4.20;;;27.00;59.00;;;;;;4844650;29;20448;-74
2022/08/25 07:11:34;;;;;;;4.00;3.60;;;27.00;59.00;;;;;;4850840;29;20436;-73
2022/08/25 07:14:09;;;;;;;4.10;3.70;;;27.00;59.50;;;;;;4845994;29;20448;-73
2022/08/25 07:16:36;;;;;;;5.73;4.33;;;27.00;58.90;;;;;;4827545;29;20508;-74
2022/08/25 07:19:05;;;;;;;3.77;3.47;;;27.00;58.90;;;;;;4857390;29;20514;-74
2022/08/25 07:21:35;;;;;;;3.80;3.50;;;27.00;58.90;;;;;;4859296;29;20440;-74
2022/08/25 07:24:08;;;;;;;4.13;3.73;;;27.00;59.00;;;;;;4853938;29;20460;-74
2022/08/25 07:26:39;;;;;;;3.87;3.57;;;27.00;59.00;;;;;;4850326;29;20470;-74
2022/08/25 07:29:15;;;;;;;4.13;3.73;;;27.00;58.90;;;;;;4858780;29;20506;-74
2022/08/25 07:31:41;;;;;;;4.20;3.57;;;27.00;59.40;;;;;;4859313;29;20816;-74
2022/08/25 07:37:12;;;;;;;4.33;3.93;;;27.00;58.90;;;;;;4840949;29;20432;-74
2022/08/25 07:39:38;;;;;;;4.70;3.97;;;27.00;58.90;;;;;;4854728;29;20974;-74
2022/08/25 07:42:05;;;;;;;4.50;4.10;;;27.00;58.90;;;;;;4842568;29;20446;-74
2022/08/25 07:44:31;;;;;;;4.63;4.23;;;27.00;58.90;;;;;;4841172;29;20461;-74
2022/08/25 07:46:57;;;;;;;4.33;4.00;;;27.00;59.00;;;;;;4837142;29;20486;-75
2022/08/25 07:49:26;;;;;;;4.67;4.00;;;27.00;59.00;;;;;;4855877;29;20443;-74
2022/08/25 07:51:56;;;;;;;3.80;3.50;;;27.00;59.00;;;;;;4843422;29;20447;-74
2022/08/25 07:54:26;;;;;;;5.10;4.57;;;27.00;58.90;;;;;;4845705;29;20480;-74
2022/08/25 07:56:54;;;;;;;3.53;3.23;;;27.00;58.90;;;;;;4847129;29;21001;-74
2022/08/25 07:59:20;;;;;;;4.00;3.70;;;27.00;59.00;;;;;;4873959;29;20995;-74
2022/08/25 08:01:49;;;;;;;4.33;4.03;;;27.00;59.00;;;;;;4858325;29;20566;-74
2022/08/25 08:04:21;;;;;;;4.80;4.20;;;27.00;59.00;;;;;;4844551;29;20467;-75
2022/08/25 08:06:47;;;;;;;5.03;4.17;;;27.00;58.90;;;;;;4832063;29;20463;-74
2022/08/25 08:09:14;;;;;;;6.07;4.20;;;27.00;58.90;;;;;;4855945;29;20535;-74
2022/08/25 08:11:43;;;;;;;4.87;4.40;;;27.10;59.00;;;;;;4846053;29;20527;-74
2022/08/25 08:14:12;;;;;;;4.30;3.80;;;27.10;59.10;;;;;;4816709;29;20516;-74
2022/08/25 08:16:38;;;;;;;4.30;3.90;;;27.10;59.10;;;;;;4849522;29;20945;-74
2022/08/25 08:19:39;;;;;;;4.27;3.97;;;27.10;59.10;;;;;;4866245;29;20455;-74
2022/08/25 08:22:05;;;;;;;4.87;4.47;;;27.10;59.00;;;;;;4848423;29;20957;-74
2022/08/25 08:24:38;;;;;;;4.87;4.47;;;27.10;59.00;;;;;;4859906;29;20445;-74
2022/08/25 08:27:07;;;;;;;4.90;4.50;;;27.10;58.90;;;;;;4873766;29;20860;-74
2022/08/25 08:29:37;;;;;;;5.03;4.53;;;27.10;58.90;;;;;;4838659;29;20455;-74
2022/08/25 08:32:06;;;;;;;4.80;4.20;;;27.10;58.90;;;;;;4855459;29;20475;-74
2022/08/25 08:34:39;;;;;;;4.20;3.90;;;27.10;58.90;;;;;;4832670;29;20451;-74
2022/08/25 08:37:08;;;;;;;4.90;4.47;;;27.10;58.90;;;;;;4858244;29;20841;-74
2022/08/25 08:39:36;;;;;;;4.73;4.33;;;27.10;58.90;;;;;;4848359;29;20451;-74
2022/08/25 08:42:46;;;;;;;4.60;4.20;;;27.20;59.00;;;;;;4843222;29;20455;-75
2022/08/25 08:45:32;;;;;;;5.13;4.63;;;27.20;59.10;;;;;;4862023;29;20450;-75
2022/08/25 08:48:21;;;;;;;5.23;4.53;;;27.20;59.00;;;;;;4840136;29;20433;-74
2022/08/25 08:50:59;;;;;;;5.03;4.63;;;27.20;59.00;;;;;;4852247;29;20434;-75
2022/08/25 08:53:53;;;;;;;5.20;4.70;;;27.30;59.10;;;;;;4858422;29;20596;-74
2022/08/25 08:56:39;;;;;;;5.37;4.80;;;27.30;59.20;;;;;;4843667;29;20471;-75
2022/08/25 08:59:26;;;;;;;5.27;4.77;;;27.30;59.10;;;;;;4857517;29;20974;-75
2022/08/25 09:02:00;;;;;;;4.90;4.60;;;27.30;59.10;;;;;;4854253;29;20486;-74
2022/08/25 09:04:51;;;;;;;4.70;4.30;;;27.40;59.20;;;;;;4858611;29;20455;-74
2022/08/25 09:07:22;;;;;;;4.70;4.30;;;27.40;59.20;;;;;;4855850;29;20469;-74
2022/08/25 09:09:50;;;;;;;5.30;4.90;;;27.40;59.10;;;;;;4858097;29;20428;-74
2022/08/25 09:12:42;;;;;;;5.10;4.70;;;27.40;59.20;;;;;;4859031;29;20556;-74
2022/08/25 09:18:59;;;;;;;5.60;5.10;;;27.50;59.20;;;;;;4858089;29;20534;-74
2022/08/25 09:21:36;;;;;;;5.60;4.83;;;27.60;59.30;;;;;;4842600;29;20478;-74
2022/08/25 09:24:10;;;;;;;5.47;4.97;;;27.60;59.30;;;;;;4857495;29;20451;-74
2022/08/25 09:26:55;;;;;;;4.90;4.50;;;27.60;59.30;;;;;;4873428;29;20447;-75
2022/08/25 09:29:36;;;;;;;5.10;4.70;;;27.70;59.30;;;;;;4857887;29;20449;-74
2022/08/25 09:32:06;;;;;;;5.13;4.70;;;27.70;59.20;;;;;;4842015;29;20562;-74
2022/08/25 09:34:33;;;;;;;5.73;5.23;;;27.70;59.20;;;;;;4841677;29;20432;-74
2022/08/25 09:37:00;;;;;;;5.10;4.70;;;27.80;59.20;;;;;;4857544;29;20451;-74
2022/08/25 09:39:28;;;;;;;5.47;4.97;;;27.80;59.20;;;;;;4857953;29;20519;-74
2022/08/25 09:41:59;;;;;;;5.50;4.97;;;27.90;59.20;;;;;;4840438;29;20472;-74
2022/08/25 09:44:46;;;;;;;5.53;4.93;;;27.90;59.10;;;;;;4845956;29;20443;-75
2022/08/25 09:47:43;;;;;;;5.80;4.97;;;27.90;59.10;;;;;;4851408;29;20459;-74
2022/08/25 09:50:15;;;;;;;5.30;4.83;;;28.00;59.10;;;;;;4864195;29;20938;-74
2022/08/25 09:52:44;;;;;;;5.17;4.50;;;28.00;59.10;;;;;;4852246;29;20459;-75
2022/08/25 09:55:13;;;;;;;5.00;4.60;;;28.00;59.00;;;;;;4852803;29;20543;-74
2022/08/25 09:57:42;;;;;;;5.77;5.27;;;28.10;59.10;;;;;;4857123;29;20463;-74
2022/08/25 10:00:21;;;;;;;6.13;5.50;;;28.10;59.00;;;;;;4862171;23;20434;-70
2022/08/25 10:03:06;;;;;;;5.57;5.13;;;28.10;58.90;;;;;;4861946;29;20491;-70
2022/08/25 10:05:39;;;;;;;5.40;5.00;;;28.20;58.90;;;;;;4848346;29;20435;-70
2022/08/25 10:08:30;;;;;;;5.17;4.77;;;28.20;58.90;;;;;;4827469;29;20436;-70
2022/08/25 10:10:58;;;;;;;5.23;4.77;;;28.30;58.90;;;;;;4858263;29;20571;-70
2022/08/25 10:13:40;;;;;;;5.57;5.07;;;28.30;58.80;;;;;;4860273;29;20447;-70
2022/08/25 10:16:24;;;;;;;6.07;5.47;;;28.30;58.80;;;;;;4861490;29;20723;-70
2022/08/25 10:19:21;;;;;;;4.50;4.20;;;28.30;58.80;;;;;;4860119;29;21056;-70
2022/08/25 10:22:06;;;;;;;5.33;4.83;;;28.40;58.80;;;;;;4845203;29;20662;-71
2022/08/25 10:24:33;;;;;;;5.23;4.73;;;28.50;58.70;;;;;;4828210;29;20448;-70
2022/08/25 10:27:15;;;;;;;5.83;5.33;;;28.50;58.60;;;;;;4842206;29;20467;-70
2022/08/25 10:30:20;;;;;;;6.10;5.60;;;28.50;58.60;;;;;;4855955;29;20443;-70
2022/08/25 10:33:27;;;;;;;5.47;4.93;;;28.60;58.60;;;;;;4828672;29;20830;-70
2022/08/25 10:36:01;;;;;;;5.33;4.83;;;28.60;58.50;;;;;;4856778;29;20965;-71
2022/08/25 10:38:46;;;;;;;6.00;4.90;;;28.70;58.50;;;;;;4861240;29;20476;-70
2022/08/25 10:41:39;;;;;;;5.47;5.07;;;28.70;58.50;;;;;;4861059;29;20490;-70
2022/08/25 10:47:11;;;;;;;6.00;5.40;;;28.80;58.40;;;;;;4858918;29;20459;-71
2022/08/25 10:49:53;;;;;;;5.20;4.80;;;28.80;58.30;;;;;;4845137;29;20458;-71
2022/08/25 10:52:35;;;;;;;5.70;5.30;;;28.90;58.30;;;;;;4859712;29;20543;-69
2022/08/25 10:55:18;;;;;;;5.90;5.40;;;28.90;58.20;;;;;;4844696;29;20818;-69
2022/08/25 10:58:05;;;;;;;5.33;4.83;;;28.90;58.00;;;;;;4859536;29;20519;-70
2022/08/25 11:00:39;;;;;;;5.40;4.97;;;29.00;58.10;;;;;;4864327;29;20802;-70
2022/08/25 11:03:28;;;;;;;5.30;4.87;;;29.00;58.00;;;;;;4880420;29;20968;-67
2022/08/25 11:06:01;;;;;;;5.37;4.87;;;29.00;58.00;;;;;;4881149;29;20872;-67
2022/08/25 11:08:27;;;;;;;5.90;5.30;;;29.10;58.00;;;;;;4881175;29;20414;-67
2022/08/25 11:11:11;;;;;;;5.57;5.17;;;29.10;58.00;;;;;;4864829;29;20427;-67
2022/08/25 11:13:51;;;;;;;5.60;5.20;;;29.10;58.00;;;;;;4864688;29;20878;-67
2022/08/25 11:16:33;;;;;;;5.37;4.97;;;29.10;57.90;;;;;;4866310;29;20521;-67
2022/08/25 11:19:13;;;;;;;5.57;5.07;;;29.20;57.80;;;;;;4879924;29;20418;-67
2022/08/25 11:22:03;;;;;;;5.67;4.97;;;29.30;57.70;;;;;;4864401;29;20799;-67
2022/08/25 11:24:32;;;;;;;5.23;4.60;;;29.30;57.70;;;;;;4880965;29;20407;-67
2022/08/25 11:26:59;;;;;;;6.03;4.90;;;29.30;57.60;;;;;;4879513;29;21022;-67
2022/08/25 11:29:31;;;;;;;6.33;5.33;;;29.40;57.50;;;;;;4880687;29;20497;-67
2022/08/25 11:31:59;;;;;;;5.13;4.73;;;29.40;57.20;;;;;;4879269;29;20430;-67
2022/08/25 11:34:30;;;;;;;5.60;5.07;;;29.40;57.00;;;;;;4879438;29;20438;-67
2022/08/25 11:37:07;;;;;;;5.30;4.90;;;29.50;56.90;;;;;;4879459;29;20848;-67
2022/08/25 11:40:15;;;;;;;5.57;5.17;;;29.50;57.00;;;;;;4880384;29;20822;-67
2022/08/25 11:43:05;;;;;;;5.80;5.30;;;29.50;57.00;;;;;;4863540;29;20455;-67
2022/08/25 11:46:28;;;;;;;5.47;5.07;;;29.60;57.10;;;;;;4866433;29;20478;-67
2022/08/25 11:49:28;;;;;;;5.47;4.97;;;29.60;57.00;;;;;;4864179;29;20841;-67
2022/08/25 11:51:54;;;;;;;5.30;4.80;;;29.70;57.10;;;;;;4863913;29;20502;-68
2022/08/25 11:54:38;;;;;;;5.27;4.77;;;29.70;57.00;;;;;;4879135;29;20461;-67
2022/08/25 11:57:21;;;;;;;5.77;4.97;;;29.80;57.10;;;;;;4863904;29;20427;-67
2022/08/25 11:59:53;;;;;;;5.33;4.83;;;29.80;57.00;;;;;;4879367;29;20936;-67
2022/08/25 12:02:38;;;;;;;5.67;5.07;;;29.80;57.00;;;;;;4863570;29;20541;-67
2022/08/25 12:05:06;;;;;;;4.80;4.50;;;29.90;56.90;;;;;;4879086;29;20450;-68
2022/08/25 12:07:47;;;;;;;7.60;5.07;;;29.90;56.90;;;;;;4878841;29;20546;-67
2022/08/25 12:10:24;;;;;;;5.63;5.13;;;29.90;56.80;;;;;;4879155;29;20486;-68
2022/08/25 12:13:02;;;;;;;5.33;4.93;;;29.90;56.70;;;;;;4894599;29;20798;-67
2022/08/25 12:15:31;;;;;;;4.53;4.17;;;30.00;56.50;;;;;;4898708;29;20501;-68
2022/08/25 12:18:06;;;;;;;5.20;4.80;;;30.00;56.50;;;;;;4896991;29;20850;-68
2022/08/25 12:20:56;;;;;;;5.90;5.40;;;30.00;56.40;;;;;;4896402;29;20442;-68
2022/08/25 12:23:36;;;;;;;5.03;4.73;;;30.10;56.40;;;;;;4897719;29;20437;-68
2022/08/25 12:26:38;;;;;;;5.77;5.37;;;30.10;56.30;;;;;;4896712;29;20465;-68
2022/08/25 12:29:18;;;;;;;4.90;4.50;;;30.10;56.30;;;;;;4897914;29;20523;-68
2022/08/25 12:31:56;;;;;;;5.07;4.67;;;30.20;56.30;;;;;;4881366;29;20521;-67
2022/08/25 12:34:41;;;;;;;5.43;5.03;;;30.20;56.20;;;;;;4894708;29;20437;-67
2022/08/25 12:37:17;;;;;;;6.00;4.90;;;30.20;56.20;;;;;;4896705;29;20417;-68
2022/08/25 12:39:53;;;;;;;5.77;5.07;;;30.30;56.10;;;;;;4897708;29;20831;-68
2022/08/25 12:42:27;;;;;;;5.20;4.80;;;30.30;56.00;;;;;;4882844;29;20839;-68
2022/08/25 12:45:24;;;;;;;7.23;4.90;;;30.30;55.90;;;;;;4862302;29;20419;-68
2022/08/25 12:47:53;;;;;;;4.70;4.30;;;30.30;55.80;;;;;;4879243;29;20983;-67
2022/08/25 12:50:33;;;;;;;5.20;4.70;;;30.40;55.60;;;;;;4879407;29;20968;-68
2022/08/25 12:53:10;;;;;;;5.73;5.23;;;30.40;55.50;;;;;;4862275;29;20463;-68
2022/08/25 12:55:42;;;;;;;5.63;5.10;;;30.40;55.40;;;;;;4876666;29;20805;-67
2022/08/25 12:58:11;;;;;;;5.20;4.40;;;30.50;55.50;;;;;;4897516;29;20406;-67
2022/08/25 13:01:14;;;;;;;5.27;4.87;;;30.50;55.40;;;;;;4893293;29;20469;-68
2022/08/25 13:04:08;;;;;;;5.60;5.10;;;30.60;55.50;;;;;;4877755;29;21046;-68
2022/08/25 13:06:57;;;;;;;5.00;4.60;;;30.60;55.50;;;;;;4878488;29;21004;-68
2022/08/25 13:10:00;;;;;;;5.50;5.00;;;30.60;55.50;;;;;;4877427;29;20434;-68
2022/08/25 13:12:36;;;;;;;5.27;4.77;;;30.70;55.50;;;;;;4862153;29;20896;-68
2022/08/25 13:15:10;;;;;;;5.80;5.27;;;30.70;55.40;;;;;;4877638;29;20494;-68
2022/08/25 13:17:36;;;;;;;5.50;5.00;;;30.70;55.40;;;;;;4862191;29;20438;-68
2022/08/25 13:20:14;;;;;;;5.57;4.30;;;30.80;55.40;;;;;;4862339;29;20467;-68
2022/08/25 13:22:45;;;;;;;5.90;4.50;;;30.80;55.40;;;;;;4876994;29;20828;-67
2022/08/25 13:25:25;;;;;;;6.23;4.30;;;30.80;55.40;;;;;;4864614;29;20419;-68
2022/08/25 13:27:55;;;;;;;5.37;4.87;;;30.80;55.40;;;;;;4881223;29;20427;-68
2022/08/25 13:30:26;;;;;;;5.27;4.87;;;30.90;55.40;;;;;;4866065;29;20431;-68
2022/08/25 13:32:56;;;;;;;5.67;5.17;;;30.90;55.30;;;;;;4881883;29;20435;-68
2022/08/25 13:35:32;;;;;;;6.33;5.60;;;31.00;55.30;;;;;;4882902;29;20964;-67
2022/08/25 13:38:13;;;;;;;7.63;6.10;;;31.00;55.40;;;;;;4881759;29;20406;-67
2022/08/25 13:40:44;;;;;;;8.10;5.50;;;31.00;55.00;;;;;;4882796;29;20813;-69
2022/08/25 13:43:17;;;;;;;5.80;5.20;;;31.10;55.10;;;;;;4882320;29;20431;-68
2022/08/25 13:45:46;;;;;;;6.57;5.23;;;31.10;55.00;;;;;;4865686;29;20434;-68